sensor_id;sensor_type;location;lat;lon;timestamp;P1;durP1;ratioP1;P2;durP2;ratioP2
72559;SDS011;62987;52.382;9.752;2024-03-22T00:02:25;16.85;;;8.85;;
72559;SDS011;62987;52.382;9.752;2024-03-22T00:04:51;17.10;;;8.75;;
72559;SDS011;62987;52.382;9.752;2024-03-22T00:07:18;14.27;;;8.20;;
72559;SDS011;62987;52.382;9.752;2024-03-22T00:09:45;18.67;;;9.27;;
72559;SDS011;62987;52.382;9.752;2024-03-22T00:14:38;17.77;;;9.50;;
72559;SDS011;62987;52.382;9.752;2024-03-22T00:17:07;13.75;;;7.32;;
72559;SDS011;62987;52.382;9.752;2024-03-22T00:19:34;18.17;;;8.77;;
72559;SDS011;62987;52.382;9.752;2024-03-22T00:22:02;17.65;;;9.82;;
72559;SDS011;62987;52.382;9.752;2024-03-22T00:24:28;20.48;;;10.75;;
72559;SDS011;62987;52.382;9.752;2024-03-22T00:26:55;21.83;;;10.10;;
72559;SDS011;62987;52.382;9.752;2024-03-22T00:29:22;20.73;;;10.05;;
72559;SDS011;62987;52.382;9.752;2024-03-22T00:31:49;24.55;;;11.13;;
72559;SDS011;62987;52.382;9.752;2024-03-22T00:34:17;20.45;;;9.85;;
72559;SDS011;62987;52.382;9.752;2024-03-22T00:36:45;19.35;;;9.82;;
72559;SDS011;62987;52.382;9.752;2024-03-22T00:39:11;19.00;;;8.82;;
72559;SDS011;62987;52.382;9.752;2024-03-22T00:41:39;24.42;;;11.40;;
72559;SDS011;62987;52.382;9.752;2024-03-22T00:44:05;21.50;;;10.75;;
72559;SDS011;62987;52.382;9.752;2024-03-22T00:46:33;20.63;;;10.43;;
72559;SDS011;62987;52.382;9.752;2024-03-22T00:48:59;24.20;;;12.30;;
72559;SDS011;62987;52.382;9.752;2024-03-22T00:51:28;21.50;;;11.93;;
72559;SDS011;62987;52.382;9.752;2024-03-22T00:53:54;28.05;;;13.98;;
72559;SDS011;62987;52.382;9.752;2024-03-22T00:56:21;26.77;;;13.13;;
72559;SDS011;62987;52.382;9.752;2024-03-22T00:58:48;27.90;;;12.88;;
72559;SDS011;62987;52.382;9.752;2024-03-22T01:01:15;29.08;;;15.68;;
72559;SDS011;62987;52.382;9.752;2024-03-22T01:03:42;23.30;;;12.35;;
72559;SDS011;62987;52.382;9.752;2024-03-22T01:06:09;24.65;;;14.23;;
72559;SDS011;62987;52.382;9.752;2024-03-22T01:08:37;27.75;;;14.73;;
72559;SDS011;62987;52.382;9.752;2024-03-22T01:11:04;30.33;;;14.00;;
72559;SDS011;62987;52.382;9.752;2024-03-22T01:13:30;24.58;;;13.70;;
72559;SDS011;62987;52.382;9.752;2024-03-22T01:15:57;31.08;;;14.50;;
72559;SDS011;62987;52.382;9.752;2024-03-22T01:18:24;27.45;;;14.98;;
72559;SDS011;62987;52.382;9.752;2024-03-22T01:20:51;31.58;;;15.10;;
72559;SDS011;62987;52.382;9.752;2024-03-22T01:23:17;31.92;;;16.05;;
72559;SDS011;62987;52.382;9.752;2024-03-22T01:25:46;29.70;;;15.77;;
72559;SDS011;62987;52.382;9.752;2024-03-22T01:28:12;31.70;;;15.73;;
72559;SDS011;62987;52.382;9.752;2024-03-22T01:30:42;30.85;;;16.35;;
72559;SDS011;62987;52.382;9.752;2024-03-22T01:33:09;37.00;;;17.30;;
72559;SDS011;62987;52.382;9.752;2024-03-22T01:35:36;31.30;;;15.25;;
72559;SDS011;62987;52.382;9.752;2024-03-22T01:38:02;33.20;;;15.88;;
72559;SDS011;62987;52.382;9.752;2024-03-22T01:40:30;30.77;;;15.75;;
72559;SDS011;62987;52.382;9.752;2024-03-22T01:42:59;28.65;;;15.32;;
72559;SDS011;62987;52.382;9.752;2024-03-22T01:45:27;35.40;;;16.65;;
72559;SDS011;62987;52.382;9.752;2024-03-22T01:47:58;37.35;;;17.33;;
72559;SDS011;62987;52.382;9.752;2024-03-22T01:50:26;34.33;;;16.65;;
72559;SDS011;62987;52.382;9.752;2024-03-22T01:55:20;36.20;;;17.05;;
72559;SDS011;62987;52.382;9.752;2024-03-22T01:57:47;30.25;;;16.13;;
72559;SDS011;62987;52.382;9.752;2024-03-22T02:00:18;36.35;;;17.60;;
72559;SDS011;62987;52.382;9.752;2024-03-22T02:02:45;35.35;;;18.05;;
72559;SDS011;62987;52.382;9.752;2024-03-22T02:07:38;36.13;;;17.70;;
72559;SDS011;62987;52.382;9.752;2024-03-22T02:10:06;36.15;;;16.50;;
72559;SDS011;62987;52.382;9.752;2024-03-22T02:12:33;31.98;;;16.17;;
72559;SDS011;62987;52.382;9.752;2024-03-22T02:17:29;31.17;;;15.48;;
72559;SDS011;62987;52.382;9.752;2024-03-22T02:19:56;30.00;;;15.85;;
72559;SDS011;62987;52.382;9.752;2024-03-22T02:22:22;33.30;;;15.07;;
72559;SDS011;62987;52.382;9.752;2024-03-22T02:27:17;31.02;;;15.02;;
72559;SDS011;62987;52.382;9.752;2024-03-22T02:29:45;31.73;;;15.63;;
72559;SDS011;62987;52.382;9.752;2024-03-22T02:32:11;33.85;;;16.30;;
72559;SDS011;62987;52.382;9.752;2024-03-22T02:34:39;34.05;;;17.02;;
72559;SDS011;62987;52.382;9.752;2024-03-22T02:37:05;32.67;;;17.02;;
72559;SDS011;62987;52.382;9.752;2024-03-22T02:39:32;33.03;;;17.98;;
72559;SDS011;62987;52.382;9.752;2024-03-22T02:42:00;31.50;;;16.60;;
72559;SDS011;62987;52.382;9.752;2024-03-22T02:44:27;31.77;;;15.82;;
72559;SDS011;62987;52.382;9.752;2024-03-22T02:46:54;35.33;;;15.98;;
72559;SDS011;62987;52.382;9.752;2024-03-22T02:49:21;35.50;;;18.35;;
72559;SDS011;62987;52.382;9.752;2024-03-22T02:51:47;35.00;;;17.42;;
72559;SDS011;62987;52.382;9.752;2024-03-22T02:56:41;30.88;;;16.42;;
72559;SDS011;62987;52.382;9.752;2024-03-22T03:01:36;32.60;;;15.77;;
72559;SDS011;62987;52.382;9.752;2024-03-22T03:04:03;32.42;;;15.50;;
72559;SDS011;62987;52.382;9.752;2024-03-22T03:06:30;34.22;;;17.42;;
72559;SDS011;62987;52.382;9.752;2024-03-22T03:08:57;33.17;;;16.00;;
72559;SDS011;62987;52.382;9.752;2024-03-22T03:11:23;37.42;;;17.65;;
72559;SDS011;62987;52.382;9.752;2024-03-22T03:13:51;34.30;;;15.93;;
72559;SDS011;62987;52.382;9.752;2024-03-22T03:16:18;36.90;;;15.73;;
72559;SDS011;62987;52.382;9.752;2024-03-22T03:18:46;35.92;;;17.40;;
72559;SDS011;62987;52.382;9.752;2024-03-22T03:21:12;33.80;;;15.02;;
72559;SDS011;62987;52.382;9.752;2024-03-22T03:23:39;33.63;;;17.48;;
72559;SDS011;62987;52.382;9.752;2024-03-22T03:26:06;34.45;;;17.15;;
72559;SDS011;62987;52.382;9.752;2024-03-22T03:28:33;37.97;;;17.83;;
72559;SDS011;62987;52.382;9.752;2024-03-22T03:30:59;38.78;;;19.00;;
72559;SDS011;62987;52.382;9.752;2024-03-22T03:33:29;32.83;;;16.48;;
72559;SDS011;62987;52.382;9.752;2024-03-22T03:35:55;37.58;;;17.05;;
72559;SDS011;62987;52.382;9.752;2024-03-22T03:38:23;35.70;;;18.38;;
72559;SDS011;62987;52.382;9.752;2024-03-22T03:40:49;39.03;;;18.08;;
72559;SDS011;62987;52.382;9.752;2024-03-22T03:43:16;32.65;;;16.92;;
72559;SDS011;62987;52.382;9.752;2024-03-22T03:45:43;36.15;;;17.73;;
72559;SDS011;62987;52.382;9.752;2024-03-22T03:48:10;42.45;;;20.15;;
72559;SDS011;62987;52.382;9.752;2024-03-22T03:50:38;43.08;;;17.92;;
72559;SDS011;62987;52.382;9.752;2024-03-22T03:53:05;39.42;;;18.15;;
72559;SDS011;62987;52.382;9.752;2024-03-22T03:55:31;36.25;;;16.60;;
72559;SDS011;62987;52.382;9.752;2024-03-22T03:57:59;39.55;;;18.40;;
72559;SDS011;62987;52.382;9.752;2024-03-22T04:00:25;39.88;;;17.65;;
72559;SDS011;62987;52.382;9.752;2024-03-22T04:02:52;43.05;;;19.30;;
72559;SDS011;62987;52.382;9.752;2024-03-22T04:05:19;34.22;;;17.00;;
72559;SDS011;62987;52.382;9.752;2024-03-22T04:07:48;39.05;;;19.33;;
72559;SDS011;62987;52.382;9.752;2024-03-22T04:10:14;40.50;;;17.30;;
72559;SDS011;62987;52.382;9.752;2024-03-22T04:12:44;46.35;;;19.88;;
72559;SDS011;62987;52.382;9.752;2024-03-22T04:15:10;43.83;;;19.17;;
72559;SDS011;62987;52.382;9.752;2024-03-22T04:17:38;38.40;;;19.00;;
72559;SDS011;62987;52.382;9.752;2024-03-22T04:20:04;33.33;;;16.40;;
72559;SDS011;62987;52.382;9.752;2024-03-22T04:22:32;43.95;;;20.35;;
72559;SDS011;62987;52.382;9.752;2024-03-22T04:25:00;41.67;;;18.95;;
72559;SDS011;62987;52.382;9.752;2024-03-22T04:27:27;40.58;;;19.10;;
72559;SDS011;62987;52.382;9.752;2024-03-22T04:29:54;40.45;;;17.63;;
72559;SDS011;62987;52.382;9.752;2024-03-22T04:34:47;40.92;;;19.55;;
72559;SDS011;62987;52.382;9.752;2024-03-22T04:39:42;38.03;;;17.45;;
72559;SDS011;62987;52.382;9.752;2024-03-22T04:42:14;38.97;;;18.90;;
72559;SDS011;62987;52.382;9.752;2024-03-22T04:44:41;41.60;;;18.02;;
72559;SDS011;62987;52.382;9.752;2024-03-22T04:49:36;42.75;;;19.90;;
72559;SDS011;62987;52.382;9.752;2024-03-22T04:52:02;37.88;;;18.55;;
72559;SDS011;62987;52.382;9.752;2024-03-22T04:54:30;45.92;;;21.35;;
72559;SDS011;62987;52.382;9.752;2024-03-22T04:56:56;44.60;;;22.05;;
72559;SDS011;62987;52.382;9.752;2024-03-22T04:59:26;46.67;;;19.73;;
72559;SDS011;62987;52.382;9.752;2024-03-22T05:01:52;43.13;;;20.50;;
72559;SDS011;62987;52.382;9.752;2024-03-22T05:06:46;45.85;;;20.25;;
72559;SDS011;62987;52.382;9.752;2024-03-22T05:09:13;46.95;;;19.88;;
72559;SDS011;62987;52.382;9.752;2024-03-22T05:11:39;44.85;;;20.63;;
72559;SDS011;62987;52.382;9.752;2024-03-22T05:14:07;46.17;;;19.50;;
72559;SDS011;62987;52.382;9.752;2024-03-22T05:16:34;44.55;;;18.30;;
72559;SDS011;62987;52.382;9.752;2024-03-22T05:19:02;42.80;;;19.50;;
72559;SDS011;62987;52.382;9.752;2024-03-22T05:21:28;45.50;;;19.90;;
72559;SDS011;62987;52.382;9.752;2024-03-22T05:23:56;39.88;;;16.55;;
72559;SDS011;62987;52.382;9.752;2024-03-22T05:26:22;39.08;;;19.13;;
72559;SDS011;62987;52.382;9.752;2024-03-22T05:28:49;40.85;;;18.50;;
72559;SDS011;62987;52.382;9.752;2024-03-22T05:31:16;39.08;;;18.05;;
72559;SDS011;62987;52.382;9.752;2024-03-22T05:36:15;40.13;;;18.85;;
72559;SDS011;62987;52.382;9.752;2024-03-22T05:38:43;37.70;;;17.65;;
72559;SDS011;62987;52.382;9.752;2024-03-22T05:41:10;40.72;;;18.38;;
72559;SDS011;62987;52.382;9.752;2024-03-22T05:46:03;49.30;;;17.58;;
72559;SDS011;62987;52.382;9.752;2024-03-22T05:48:31;39.28;;;17.85;;
72559;SDS011;62987;52.382;9.752;2024-03-22T05:50:58;44.58;;;20.23;;
72559;SDS011;62987;52.382;9.752;2024-03-22T05:53:26;42.30;;;19.13;;
72559;SDS011;62987;52.382;9.752;2024-03-22T05:55:52;38.92;;;16.10;;
72559;SDS011;62987;52.382;9.752;2024-03-22T06:00:46;34.53;;;15.95;;
72559;SDS011;62987;52.382;9.752;2024-03-22T06:03:14;44.13;;;18.55;;
72559;SDS011;62987;52.382;9.752;2024-03-22T06:05:43;42.22;;;19.13;;
72559;SDS011;62987;52.382;9.752;2024-03-22T06:08:12;47.40;;;19.83;;
72559;SDS011;62987;52.382;9.752;2024-03-22T06:10:38;39.40;;;16.83;;
72559;SDS011;62987;52.382;9.752;2024-03-22T06:13:06;40.17;;;17.35;;
72559;SDS011;62987;52.382;9.752;2024-03-22T06:15:32;35.78;;;16.50;;
72559;SDS011;62987;52.382;9.752;2024-03-22T06:20:26;39.85;;;17.60;;
72559;SDS011;62987;52.382;9.752;2024-03-22T06:22:53;40.65;;;15.93;;
72559;SDS011;62987;52.382;9.752;2024-03-22T06:25:21;32.90;;;16.23;;
72559;SDS011;62987;52.382;9.752;2024-03-22T06:27:48;41.72;;;16.38;;
72559;SDS011;62987;52.382;9.752;2024-03-22T06:30:14;42.55;;;17.48;;
72559;SDS011;62987;52.382;9.752;2024-03-22T06:35:08;37.33;;;16.75;;
72559;SDS011;62987;52.382;9.752;2024-03-22T06:37:37;43.58;;;18.45;;
72559;SDS011;62987;52.382;9.752;2024-03-22T06:40:05;43.13;;;16.88;;
72559;SDS011;62987;52.382;9.752;2024-03-22T06:42:34;36.47;;;16.08;;
72559;SDS011;62987;52.382;9.752;2024-03-22T06:45:01;36.30;;;16.60;;
72559;SDS011;62987;52.382;9.752;2024-03-22T06:47:29;40.20;;;17.25;;
72559;SDS011;62987;52.382;9.752;2024-03-22T06:49:56;36.10;;;16.85;;
72559;SDS011;62987;52.382;9.752;2024-03-22T06:52:23;38.45;;;16.27;;
72559;SDS011;62987;52.382;9.752;2024-03-22T06:54:50;36.47;;;17.45;;
72559;SDS011;62987;52.382;9.752;2024-03-22T06:57:17;42.22;;;17.88;;
72559;SDS011;62987;52.382;9.752;2024-03-22T06:59:45;35.63;;;16.55;;
72559;SDS011;62987;52.382;9.752;2024-03-22T07:02:12;37.35;;;15.57;;
72559;SDS011;62987;52.382;9.752;2024-03-22T07:04:40;37.45;;;17.70;;
72559;SDS011;62987;52.382;9.752;2024-03-22T07:07:07;38.67;;;16.73;;
72559;SDS011;62987;52.382;9.752;2024-03-22T07:09:33;33.22;;;15.98;;
72559;SDS011;62987;52.382;9.752;2024-03-22T07:12:01;31.63;;;14.95;;
72559;SDS011;62987;52.382;9.752;2024-03-22T07:14:28;28.98;;;13.90;;
72559;SDS011;62987;52.382;9.752;2024-03-22T07:19:23;35.08;;;15.70;;
72559;SDS011;62987;52.382;9.752;2024-03-22T07:21:50;33.45;;;16.25;;
72559;SDS011;62987;52.382;9.752;2024-03-22T07:24:17;29.90;;;15.18;;
72559;SDS011;62987;52.382;9.752;2024-03-22T07:29:10;30.48;;;14.15;;
72559;SDS011;62987;52.382;9.752;2024-03-22T07:34:05;28.92;;;14.13;;
72559;SDS011;62987;52.382;9.752;2024-03-22T07:36:36;26.42;;;14.18;;
72559;SDS011;62987;52.382;9.752;2024-03-22T07:39:03;34.85;;;15.00;;
72559;SDS011;62987;52.382;9.752;2024-03-22T07:41:32;28.00;;;13.75;;
72559;SDS011;62987;52.382;9.752;2024-03-22T07:43:58;30.60;;;13.30;;
72559;SDS011;62987;52.382;9.752;2024-03-22T07:46:26;28.95;;;13.35;;
72559;SDS011;62987;52.382;9.752;2024-03-22T07:48:52;27.17;;;13.30;;
72559;SDS011;62987;52.382;9.752;2024-03-22T07:53:47;27.60;;;12.27;;
72559;SDS011;62987;52.382;9.752;2024-03-22T07:56:15;25.25;;;13.38;;
72559;SDS011;62987;52.382;9.752;2024-03-22T07:58:42;24.92;;;12.95;;
72559;SDS011;62987;52.382;9.752;2024-03-22T08:03:36;21.58;;;12.35;;
72559;SDS011;62987;52.382;9.752;2024-03-22T08:08:31;23.23;;;11.07;;
72559;SDS011;62987;52.382;9.752;2024-03-22T08:10:58;26.65;;;12.35;;
72559;SDS011;62987;52.382;9.752;2024-03-22T08:13:25;25.60;;;12.52;;
72559;SDS011;62987;52.382;9.752;2024-03-22T08:18:18;24.92;;;12.05;;
72559;SDS011;62987;52.382;9.752;2024-03-22T08:20:46;25.80;;;12.25;;
72559;SDS011;62987;52.382;9.752;2024-03-22T08:23:12;25.20;;;13.75;;
72559;SDS011;62987;52.382;9.752;2024-03-22T08:25:41;22.70;;;12.30;;
72559;SDS011;62987;52.382;9.752;2024-03-22T08:28:08;26.25;;;13.25;;
72559;SDS011;62987;52.382;9.752;2024-03-22T08:30:37;26.40;;;12.70;;
72559;SDS011;62987;52.382;9.752;2024-03-22T08:33:03;22.08;;;11.02;;
72559;SDS011;62987;52.382;9.752;2024-03-22T08:35:31;26.58;;;13.10;;
72559;SDS011;62987;52.382;9.752;2024-03-22T08:37:57;21.67;;;11.75;;
72559;SDS011;62987;52.382;9.752;2024-03-22T08:40:24;23.23;;;11.55;;
72559;SDS011;62987;52.382;9.752;2024-03-22T08:42:52;23.83;;;12.75;;
72559;SDS011;62987;52.382;9.752;2024-03-22T08:45:20;23.92;;;13.18;;
72559;SDS011;62987;52.382;9.752;2024-03-22T08:47:46;28.45;;;14.50;;
72559;SDS011;62987;52.382;9.752;2024-03-22T08:52:40;23.80;;;11.63;;
72559;SDS011;62987;52.382;9.752;2024-03-22T08:55:08;20.15;;;10.43;;
72559;SDS011;62987;52.382;9.752;2024-03-22T08:57:34;24.60;;;11.68;;
72559;SDS011;62987;52.382;9.752;2024-03-22T09:02:29;20.85;;;12.15;;
72559;SDS011;62987;52.382;9.752;2024-03-22T09:04:57;20.90;;;11.25;;
72559;SDS011;62987;52.382;9.752;2024-03-22T09:07:23;20.42;;;12.32;;
72559;SDS011;62987;52.382;9.752;2024-03-22T09:09:51;22.25;;;12.55;;
72559;SDS011;62987;52.382;9.752;2024-03-22T09:14:44;22.23;;;10.40;;
72559;SDS011;62987;52.382;9.752;2024-03-22T09:19:42;22.17;;;11.93;;
72559;SDS011;62987;52.382;9.752;2024-03-22T09:22:09;19.20;;;10.23;;
72559;SDS011;62987;52.382;9.752;2024-03-22T09:24:36;23.23;;;10.80;;
72559;SDS011;62987;52.382;9.752;2024-03-22T09:27:03;20.08;;;10.30;;
72559;SDS011;62987;52.382;9.752;2024-03-22T09:29:34;24.65;;;10.38;;
72559;SDS011;62987;52.382;9.752;2024-03-22T09:32:01;19.48;;;10.15;;
72559;SDS011;62987;52.382;9.752;2024-03-22T09:34:29;18.70;;;10.43;;
72559;SDS011;62987;52.382;9.752;2024-03-22T09:36:57;20.50;;;10.32;;
72559;SDS011;62987;52.382;9.752;2024-03-22T09:39:23;16.63;;;8.90;;
72559;SDS011;62987;52.382;9.752;2024-03-22T09:41:52;20.80;;;10.32;;
72559;SDS011;62987;52.382;9.752;2024-03-22T09:44:23;20.73;;;10.15;;
72559;SDS011;62987;52.382;9.752;2024-03-22T09:46:54;19.38;;;9.45;;
72559;SDS011;62987;52.382;9.752;2024-03-22T09:49:22;19.40;;;9.23;;
72559;SDS011;62987;52.382;9.752;2024-03-22T09:51:51;25.60;;;9.98;;
72559;SDS011;62987;52.382;9.752;2024-03-22T09:54:18;20.98;;;9.65;;
72559;SDS011;62987;52.382;9.752;2024-03-22T09:56:45;17.67;;;9.63;;
72559;SDS011;62987;52.382;9.752;2024-03-22T09:59:13;20.55;;;9.93;;
72559;SDS011;62987;52.382;9.752;2024-03-22T10:04:08;17.35;;;9.40;;
72559;SDS011;62987;52.382;9.752;2024-03-22T10:06:35;16.63;;;9.25;;
72559;SDS011;62987;52.382;9.752;2024-03-22T10:09:04;19.05;;;10.38;;
72559;SDS011;62987;52.382;9.752;2024-03-22T10:11:34;22.35;;;10.23;;
72559;SDS011;62987;52.382;9.752;2024-03-22T10:14:05;15.23;;;8.10;;
72559;SDS011;62987;52.382;9.752;2024-03-22T10:16:33;18.95;;;10.05;;
72559;SDS011;62987;52.382;9.752;2024-03-22T10:19:00;16.55;;;9.23;;
72559;SDS011;62987;52.382;9.752;2024-03-22T10:21:28;18.13;;;9.57;;
72559;SDS011;62987;52.382;9.752;2024-03-22T10:23:54;19.67;;;9.85;;
72559;SDS011;62987;52.382;9.752;2024-03-22T10:26:23;18.63;;;9.63;;
72559;SDS011;62987;52.382;9.752;2024-03-22T10:28:51;20.48;;;9.88;;
72559;SDS011;62987;52.382;9.752;2024-03-22T10:31:18;18.42;;;9.52;;
72559;SDS011;62987;52.382;9.752;2024-03-22T10:33:46;18.25;;;10.00;;
72559;SDS011;62987;52.382;9.752;2024-03-22T10:36:14;20.70;;;10.50;;
72559;SDS011;62987;52.382;9.752;2024-03-22T10:38:42;19.42;;;9.30;;
72559;SDS011;62987;52.382;9.752;2024-03-22T10:41:11;19.33;;;9.50;;
72559;SDS011;62987;52.382;9.752;2024-03-22T10:43:39;24.65;;;10.77;;
72559;SDS011;62987;52.382;9.752;2024-03-22T10:46:06;19.50;;;10.63;;
72559;SDS011;62987;52.382;9.752;2024-03-22T10:48:35;18.50;;;10.10;;
72559;SDS011;62987;52.382;9.752;2024-03-22T10:51:04;17.73;;;10.73;;
72559;SDS011;62987;52.382;9.752;2024-03-22T10:53:31;18.58;;;9.93;;
72559;SDS011;62987;52.382;9.752;2024-03-22T10:56:00;17.77;;;9.85;;
72559;SDS011;62987;52.382;9.752;2024-03-22T10:58:28;22.10;;;10.75;;
72559;SDS011;62987;52.382;9.752;2024-03-22T11:00:57;20.40;;;11.00;;
72559;SDS011;62987;52.382;9.752;2024-03-22T11:03:24;20.55;;;11.60;;
72559;SDS011;62987;52.382;9.752;2024-03-22T11:05:54;17.00;;;9.80;;
72559;SDS011;62987;52.382;9.752;2024-03-22T11:08:25;19.23;;;10.77;;
72559;SDS011;62987;52.382;9.752;2024-03-22T11:10:53;22.00;;;11.40;;
72559;SDS011;62987;52.382;9.752;2024-03-22T11:13:21;16.48;;;9.73;;
72559;SDS011;62987;52.382;9.752;2024-03-22T11:15:49;18.05;;;9.00;;
72559;SDS011;62987;52.382;9.752;2024-03-22T11:18:18;18.42;;;10.30;;
72559;SDS011;62987;52.382;9.752;2024-03-22T11:20:45;18.92;;;10.43;;
72559;SDS011;62987;52.382;9.752;2024-03-22T11:25:40;17.55;;;9.57;;
72559;SDS011;62987;52.382;9.752;2024-03-22T11:28:06;20.83;;;8.82;;
72559;SDS011;62987;52.382;9.752;2024-03-22T11:33:01;19.10;;;8.65;;
72559;SDS011;62987;52.382;9.752;2024-03-22T11:35:31;17.30;;;8.18;;
72559;SDS011;62987;52.382;9.752;2024-03-22T11:37:57;20.40;;;10.00;;
72559;SDS011;62987;52.382;9.752;2024-03-22T11:40:25;18.60;;;9.02;;
72559;SDS011;62987;52.382;9.752;2024-03-22T11:42:52;16.23;;;9.20;;
72559;SDS011;62987;52.382;9.752;2024-03-22T11:45:22;19.65;;;9.43;;
72559;SDS011;62987;52.382;9.752;2024-03-22T11:47:49;19.25;;;9.32;;
72559;SDS011;62987;52.382;9.752;2024-03-22T11:50:17;16.15;;;8.60;;
72559;SDS011;62987;52.382;9.752;2024-03-22T11:52:45;18.95;;;9.98;;
72559;SDS011;62987;52.382;9.752;2024-03-22T11:55:14;17.70;;;8.50;;
72559;SDS011;62987;52.382;9.752;2024-03-22T11:57:40;20.63;;;10.23;;
72559;SDS011;62987;52.382;9.752;2024-03-22T12:00:08;16.40;;;8.95;;
72559;SDS011;62987;52.382;9.752;2024-03-22T12:02:41;19.73;;;10.50;;
72559;SDS011;62987;52.382;9.752;2024-03-22T12:05:08;17.85;;;9.60;;
72559;SDS011;62987;52.382;9.752;2024-03-22T12:10:05;16.00;;;9.00;;
72559;SDS011;62987;52.382;9.752;2024-03-22T12:12:32;16.15;;;9.82;;
72559;SDS011;62987;52.382;9.752;2024-03-22T12:14:59;18.27;;;9.95;;
72559;SDS011;62987;52.382;9.752;2024-03-22T12:17:25;20.00;;;10.00;;
72559;SDS011;62987;52.382;9.752;2024-03-22T12:19:53;20.52;;;11.23;;
72559;SDS011;62987;52.382;9.752;2024-03-22T12:22:19;18.60;;;11.02;;
72559;SDS011;62987;52.382;9.752;2024-03-22T12:24:47;17.95;;;10.18;;
72559;SDS011;62987;52.382;9.752;2024-03-22T12:27:15;22.45;;;11.35;;
72559;SDS011;62987;52.382;9.752;2024-03-22T12:29:43;22.90;;;11.73;;
72559;SDS011;62987;52.382;9.752;2024-03-22T12:32:09;21.77;;;11.07;;
72559;SDS011;62987;52.382;9.752;2024-03-22T12:34:37;23.80;;;10.93;;
72559;SDS011;62987;52.382;9.752;2024-03-22T12:37:03;22.23;;;12.27;;
72559;SDS011;62987;52.382;9.752;2024-03-22T12:39:31;22.83;;;11.93;;
72559;SDS011;62987;52.382;9.752;2024-03-22T12:41:58;24.15;;;12.98;;
72559;SDS011;62987;52.382;9.752;2024-03-22T12:44:27;22.98;;;12.55;;
72559;SDS011;62987;52.382;9.752;2024-03-22T12:46:53;20.48;;;11.88;;
72559;SDS011;62987;52.382;9.752;2024-03-22T12:49:20;20.75;;;11.80;;
72559;SDS011;62987;52.382;9.752;2024-03-22T12:51:47;19.58;;;11.25;;
72559;SDS011;62987;52.382;9.752;2024-03-22T12:54:15;23.65;;;12.50;;
72559;SDS011;62987;52.382;9.752;2024-03-22T12:56:44;24.17;;;12.75;;
72559;SDS011;62987;52.382;9.752;2024-03-22T12:59:13;20.10;;;11.75;;
72559;SDS011;62987;52.382;9.752;2024-03-22T13:01:42;20.80;;;12.07;;
72559;SDS011;62987;52.382;9.752;2024-03-22T13:04:10;21.73;;;11.27;;
72559;SDS011;62987;52.382;9.752;2024-03-22T13:06:37;26.50;;;11.85;;
72559;SDS011;62987;52.382;9.752;2024-03-22T13:09:04;19.05;;;11.10;;
72559;SDS011;62987;52.382;9.752;2024-03-22T13:11:31;22.95;;;12.98;;
72559;SDS011;62987;52.382;9.752;2024-03-22T13:13:58;22.17;;;11.85;;
72559;SDS011;62987;52.382;9.752;2024-03-22T13:16:25;21.83;;;12.57;;
72559;SDS011;62987;52.382;9.752;2024-03-22T13:18:53;21.60;;;11.13;;
72559;SDS011;62987;52.382;9.752;2024-03-22T13:21:20;18.75;;;11.10;;
72559;SDS011;62987;52.382;9.752;2024-03-22T13:23:48;20.02;;;11.35;;
72559;SDS011;62987;52.382;9.752;2024-03-22T13:26:14;19.63;;;11.18;;
72559;SDS011;62987;52.382;9.752;2024-03-22T13:31:09;23.75;;;11.38;;
72559;SDS011;62987;52.382;9.752;2024-03-22T13:36:04;24.33;;;12.40;;
72559;SDS011;62987;52.382;9.752;2024-03-22T13:38:32;21.48;;;11.80;;
72559;SDS011;62987;52.382;9.752;2024-03-22T13:40:58;19.35;;;11.90;;
72559;SDS011;62987;52.382;9.752;2024-03-22T13:43:26;20.38;;;11.70;;
72559;SDS011;62987;52.382;9.752;2024-03-22T13:45:53;19.58;;;11.52;;
72559;SDS011;62987;52.382;9.752;2024-03-22T13:48:21;18.92;;;11.13;;
72559;SDS011;62987;52.382;9.752;2024-03-22T13:50:51;20.98;;;11.75;;
72559;SDS011;62987;52.382;9.752;2024-03-22T13:53:21;20.33;;;11.15;;
72559;SDS011;62987;52.382;9.752;2024-03-22T13:55:48;20.23;;;10.85;;
72559;SDS011;62987;52.382;9.752;2024-03-22T13:58:15;19.17;;;11.27;;
72559;SDS011;62987;52.382;9.752;2024-03-22T14:00:41;19.92;;;10.48;;
72559;SDS011;62987;52.382;9.752;2024-03-22T14:03:09;22.80;;;11.57;;
72559;SDS011;62987;52.382;9.752;2024-03-22T14:05:35;21.02;;;11.85;;
72559;SDS011;62987;52.382;9.752;2024-03-22T14:08:03;20.63;;;11.52;;
72559;SDS011;62987;52.382;9.752;2024-03-22T14:10:31;23.83;;;11.07;;
72559;SDS011;62987;52.382;9.752;2024-03-22T14:12:59;22.17;;;12.13;;
72559;SDS011;62987;52.382;9.752;2024-03-22T14:15:25;22.85;;;13.65;;
72559;SDS011;62987;52.382;9.752;2024-03-22T14:17:57;19.67;;;10.52;;
72559;SDS011;62987;52.382;9.752;2024-03-22T14:20:24;15.55;;;9.90;;
72559;SDS011;62987;52.382;9.752;2024-03-22T14:22:51;22.02;;;11.55;;
72559;SDS011;62987;52.382;9.752;2024-03-22T14:25:18;22.25;;;12.38;;
72559;SDS011;62987;52.382;9.752;2024-03-22T14:27:50;24.10;;;13.68;;
72559;SDS011;62987;52.382;9.752;2024-03-22T14:30:18;23.17;;;14.00;;
72559;SDS011;62987;52.382;9.752;2024-03-22T14:32:45;26.48;;;13.50;;
72559;SDS011;62987;52.382;9.752;2024-03-22T14:35:12;24.83;;;14.98;;
72559;SDS011;62987;52.382;9.752;2024-03-22T14:40:06;25.25;;;12.25;;
72559;SDS011;62987;52.382;9.752;2024-03-22T14:42:36;26.23;;;13.80;;
72559;SDS011;62987;52.382;9.752;2024-03-22T14:45:04;26.13;;;14.02;;
72559;SDS011;62987;52.382;9.752;2024-03-22T14:47:35;29.58;;;14.40;;
72559;SDS011;62987;52.382;9.752;2024-03-22T14:50:01;27.85;;;13.75;;
72559;SDS011;62987;52.382;9.752;2024-03-22T14:52:29;29.70;;;16.05;;
72559;SDS011;62987;52.382;9.752;2024-03-22T14:54:55;29.85;;;16.17;;
72559;SDS011;62987;52.382;9.752;2024-03-22T14:57:23;27.20;;;14.75;;
72559;SDS011;62987;52.382;9.752;2024-03-22T14:59:50;29.95;;;15.25;;
72559;SDS011;62987;52.382;9.752;2024-03-22T15:02:19;25.50;;;13.38;;
72559;SDS011;62987;52.382;9.752;2024-03-22T15:04:46;29.35;;;16.00;;
72559;SDS011;62987;52.382;9.752;2024-03-22T15:09:40;30.25;;;14.40;;
72559;SDS011;62987;52.382;9.752;2024-03-22T15:14:35;27.50;;;12.93;;
72559;SDS011;62987;52.382;9.752;2024-03-22T15:19:30;28.17;;;12.18;;
72559;SDS011;62987;52.382;9.752;2024-03-22T15:21:57;27.08;;;12.57;;
72559;SDS011;62987;52.382;9.752;2024-03-22T15:24:23;27.17;;;12.40;;
72559;SDS011;62987;52.382;9.752;2024-03-22T15:26:51;23.40;;;12.63;;
72559;SDS011;62987;52.382;9.752;2024-03-22T15:29:17;27.13;;;12.48;;
72559;SDS011;62987;52.382;9.752;2024-03-22T15:34:11;24.50;;;11.88;;
72559;SDS011;62987;52.382;9.752;2024-03-22T15:36:39;28.13;;;12.55;;
72559;SDS011;62987;52.382;9.752;2024-03-22T15:39:06;25.80;;;13.32;;
72559;SDS011;62987;52.382;9.752;2024-03-22T15:41:33;26.67;;;11.20;;
72559;SDS011;62987;52.382;9.752;2024-03-22T15:44:02;32.13;;;12.98;;
72559;SDS011;62987;52.382;9.752;2024-03-22T15:46:30;21.92;;;11.98;;
72559;SDS011;62987;52.382;9.752;2024-03-22T15:48:57;26.65;;;11.75;;
72559;SDS011;62987;52.382;9.752;2024-03-22T15:51:24;23.25;;;11.75;;
72559;SDS011;62987;52.382;9.752;2024-03-22T15:53:52;26.45;;;13.45;;
72559;SDS011;62987;52.382;9.752;2024-03-22T15:56:19;22.67;;;11.90;;
72559;SDS011;62987;52.382;9.752;2024-03-22T15:58:45;25.98;;;13.00;;